Meadview, Arizona
Current Conditions -  °F | °C
As of 4:55 PM on Tuesday 21 Oct 2014 (Local Time) from KBVU Reporting Station
Clear Clear  
Wind Chill: 86°   Ceiling: Unl
Heat Index: 86°   Visibility: 10mi
Dew Point: 39°   Wind: 13mph
Humidity: 19%   Direction: 170°S
Pressure: 29.8"   Gusts: 20mph
Location:  36.03°N, 114.05°W
Report Text: KBVU 212355Z AUTO 17011G17KT 10SM CLR 30/04 A2980 RMK AO2
Loading
Personal Weather Stations






























Interactive Weather Map
Tropical Storm Tracking
New forecast layout! Learn more

10-Day Weather Forecast

Advertisements
Track Severe Weather on mobile